createdAt,value
2019-01-18T00:00:14.333Z,0
2019-01-18T00:01:14.593Z,0
2019-01-18T00:02:14.810Z,0
2019-01-18T00:03:15.059Z,0
2019-01-18T00:04:14.564Z,0
2019-01-18T00:05:14.541Z,0
2019-01-18T00:06:14.763Z,0
2019-01-18T00:07:14.781Z,0
2019-01-18T00:08:15.001Z,0
2019-01-18T00:09:14.720Z,0
2019-01-18T00:10:14.738Z,0
2019-01-18T00:11:14.480Z,0
2019-01-18T00:12:14.951Z,0
2019-01-18T00:13:14.450Z,0
2019-01-18T00:14:14.456Z,0
2019-01-18T00:15:14.429Z,0
2019-01-18T00:16:14.894Z,0
2019-01-18T00:17:14.419Z,0
2019-01-18T00:18:14.410Z,0
2019-01-18T00:19:14.616Z,0
2019-01-18T00:20:14.379Z,0
2019-01-18T00:21:14.620Z,0
2019-01-18T00:22:14.597Z,0
2019-01-18T00:23:14.586Z,0
2019-01-18T00:24:14.825Z,0
2019-01-18T00:25:14.559Z,0
2019-01-18T00:26:14.310Z,0
2019-01-18T00:27:14.585Z,0
2019-01-18T00:28:14.784Z,0
2019-01-18T00:29:14.743Z,0
2019-01-18T00:30:14.495Z,0
2019-01-18T00:31:15.106Z,0
2019-01-18T00:32:14.739Z,0
2019-01-18T00:33:14.227Z,0
2019-01-18T00:34:14.459Z,0
2019-01-18T00:35:14.445Z,0
2019-01-18T00:36:14.687Z,0
2019-01-18T00:37:14.167Z,0
2019-01-18T00:38:14.403Z,0
2019-01-18T00:39:14.410Z,0
2019-01-18T00:40:14.373Z,0
2019-01-18T00:41:14.122Z,0
2019-01-18T00:42:14.355Z,0
2019-01-18T00:43:14.344Z,0
2019-01-18T00:44:14.603Z,0
2019-01-18T00:45:14.308Z,0
2019-01-18T00:46:14.557Z,0
2019-01-18T00:47:14.320Z,0
2019-01-18T00:48:14.346Z,0
2019-01-18T00:49:14.277Z,0
2019-01-18T00:50:14.264Z,0
2019-01-18T00:51:14.499Z,0
2019-01-18T00:52:14.245Z,0
2019-01-18T00:53:14.235Z,0
2019-01-18T00:54:14.214Z,0
2019-01-18T00:55:14.218Z,0
2019-01-18T00:56:13.963Z,0
2019-01-18T00:57:14.181Z,0
2019-01-18T00:58:14.428Z,0
2019-01-18T00:59:13.661Z,0
2019-01-18T01:00:13.917Z,0
2019-01-18T01:01:14.148Z,0
2019-01-18T01:02:13.885Z,0
2019-01-18T01:03:14.354Z,0
2019-01-18T01:04:13.858Z,0
2019-01-18T01:05:14.344Z,0
2019-01-18T01:06:14.097Z,0
2019-01-18T01:07:14.107Z,0
2019-01-18T01:08:14.325Z,0
2019-01-18T01:09:14.309Z,0
2019-01-18T01:10:14.069Z,0
2019-01-18T01:11:14.266Z,0
2019-01-18T01:12:13.776Z,0
2019-01-18T01:13:14.257Z,0
2019-01-18T01:14:13.996Z,0
2019-01-18T01:15:13.989Z,0
2019-01-18T01:16:13.989Z,0
2019-01-18T01:17:13.720Z,0
2019-01-18T01:18:14.195Z,0
2019-01-18T01:19:13.712Z,0
2019-01-18T01:20:13.429Z,0
2019-01-18T01:21:13.938Z,0
2019-01-18T01:22:14.160Z,0
2019-01-18T01:23:13.661Z,0
2019-01-18T01:24:14.144Z,0
2019-01-18T01:25:14.121Z,0
2019-01-18T01:26:13.862Z,0
2019-01-18T01:27:13.849Z,0
2019-01-18T01:28:13.845Z,0
2019-01-18T01:29:13.579Z,0
2019-01-18T01:30:13.568Z,0
2019-01-18T01:31:13.798Z,0
2019-01-18T01:32:13.793Z,0
2019-01-18T01:33:13.790Z,0
2019-01-18T01:34:14.038Z,0
2019-01-18T01:35:14.006Z,0
2019-01-18T01:36:13.766Z,0
2019-01-18T01:37:13.743Z,0
2019-01-18T01:38:15.248Z,0
2019-01-18T01:39:13.470Z,0
2019-01-18T01:40:13.696Z,0
2019-01-18T01:41:13.702Z,0
2019-01-18T01:42:13.696Z,0
2019-01-18T01:43:13.669Z,0
2019-01-18T01:44:13.665Z,0
2019-01-18T01:45:13.670Z,0
2019-01-18T01:46:13.635Z,0
2019-01-18T01:47:13.878Z,0
2019-01-18T01:48:13.622Z,0
2019-01-18T01:49:13.855Z,0
2019-01-18T01:50:13.837Z,0
2019-01-18T01:51:13.606Z,0
2019-01-18T01:52:13.326Z,0
2019-01-18T01:53:13.811Z,0
2019-01-18T01:54:13.560Z,0
2019-01-18T01:55:13.285Z,0
2019-01-18T01:56:13.779Z,0
2019-01-18T01:57:13.757Z,0
2019-01-18T01:58:13.501Z,0
2019-01-18T01:59:13.503Z,0
2019-01-18T02:00:13.228Z,0
2019-01-18T02:01:13.478Z,0
2019-01-18T02:02:13.471Z,0
2019-01-18T02:03:13.198Z,0
2019-01-18T02:04:13.676Z,0
2019-01-18T02:05:13.685Z,0
2019-01-18T02:06:13.429Z,0
2019-01-18T02:07:13.649Z,0
2019-01-18T02:08:13.644Z,0
2019-01-18T02:09:13.644Z,0
2019-01-18T02:10:13.625Z,0
2019-01-18T02:11:13.625Z,0
2019-01-18T02:12:13.365Z,0
2019-01-18T02:13:13.593Z,0
2019-01-18T02:14:13.109Z,0
2019-01-18T02:15:13.083Z,0
2019-01-18T02:16:13.093Z,0
2019-01-18T02:17:13.539Z,0
2019-01-18T02:18:13.296Z,0
2019-01-18T02:19:13.293Z,0
2019-01-18T02:20:13.258Z,0
2019-01-18T02:21:13.500Z,0
2019-01-18T02:22:13.483Z,0
2019-01-18T02:23:13.271Z,0
2019-01-18T02:24:13.228Z,0
2019-01-18T02:25:13.446Z,0
2019-01-18T02:26:13.443Z,0
2019-01-18T02:27:13.428Z,0
2019-01-18T02:28:13.177Z,0
2019-01-18T02:29:13.145Z,0
2019-01-18T02:30:13.195Z,0
2019-01-18T02:31:13.171Z,0
2019-01-18T02:32:13.130Z,0
2019-01-18T02:33:13.385Z,0
2019-01-18T02:34:12.949Z,0
2019-01-18T02:35:13.352Z,0
2019-01-18T02:36:13.089Z,0
2019-01-18T02:37:13.327Z,0
2019-01-18T02:38:13.330Z,0
2019-01-18T02:39:13.308Z,0
2019-01-18T02:40:12.828Z,0
2019-01-18T02:41:13.297Z,0
2019-01-18T02:42:13.271Z,0
2019-01-18T02:43:13.283Z,0
2019-01-18T02:44:12.776Z,0
2019-01-18T02:45:13.244Z,0
2019-01-18T02:46:12.999Z,0
2019-01-18T02:47:13.207Z,0
2019-01-18T02:48:13.222Z,0
2019-01-18T02:49:13.203Z,0
2019-01-18T02:50:12.688Z,0
2019-01-18T02:51:12.970Z,0
2019-01-18T02:52:13.182Z,0
2019-01-18T02:53:13.145Z,0
2019-01-18T02:54:12.899Z,0
2019-01-18T02:55:13.147Z,0
2019-01-18T02:56:13.127Z,0
2019-01-18T02:57:13.096Z,0
2019-01-18T02:58:13.088Z,0
2019-01-18T02:59:13.097Z,0
2019-01-18T03:00:13.099Z,0
2019-01-18T03:01:13.073Z,0
2019-01-18T03:02:12.811Z,0
2019-01-18T03:03:13.066Z,0
2019-01-18T03:04:12.772Z,0
2019-01-18T03:05:12.763Z,0
2019-01-18T03:06:13.029Z,0
2019-01-18T03:07:12.993Z,0
2019-01-18T03:08:12.735Z,0
2019-01-18T03:09:12.976Z,0
2019-01-18T03:10:12.703Z,0
2019-01-18T03:11:12.694Z,0
2019-01-18T03:12:13.000Z,0
2019-01-18T03:13:12.927Z,0
2019-01-18T03:14:12.683Z,0
2019-01-18T03:15:12.932Z,0
2019-01-18T03:16:12.890Z,0
2019-01-18T03:17:12.650Z,0
2019-01-18T03:18:12.881Z,0
2019-01-18T03:19:12.868Z,0
2019-01-18T03:20:12.357Z,0
2019-01-18T03:21:12.613Z,0
2019-01-18T03:22:12.842Z,0
2019-01-18T03:23:12.837Z,0
2019-01-18T03:24:12.811Z,0
2019-01-18T03:25:12.808Z,0
2019-01-18T03:26:12.532Z,0
2019-01-18T03:27:12.535Z,0
2019-01-18T03:28:12.835Z,0
2019-01-18T03:29:12.269Z,0
2019-01-18T03:30:26.156Z,0
2019-01-18T03:31:12.744Z,0
2019-01-18T03:32:12.776Z,0
2019-01-18T03:33:12.841Z,0
2019-01-18T03:34:12.465Z,0
2019-01-18T03:35:12.693Z,0
2019-01-18T03:36:12.434Z,0
2019-01-18T03:37:12.447Z,0
2019-01-18T03:38:12.429Z,0
2019-01-18T03:39:12.160Z,0
2019-01-18T03:40:12.633Z,0
2019-01-18T03:41:12.391Z,0
2019-01-18T03:42:12.379Z,0
2019-01-18T03:43:12.355Z,0
2019-01-18T03:44:12.352Z,0
2019-01-18T03:45:12.599Z,0
2019-01-18T03:46:12.091Z,0
2019-01-18T03:47:12.332Z,0
2019-01-18T03:48:12.551Z,0
2019-01-18T03:49:12.036Z,0
2019-01-18T03:50:12.545Z,0
2019-01-18T03:51:12.674Z,0
2019-01-18T03:52:12.545Z,0
2019-01-18T03:53:12.524Z,0
2019-01-18T03:54:12.495Z,0
2019-01-18T03:55:13.122Z,0
2019-01-18T03:56:11.975Z,0
2019-01-18T03:57:12.218Z,0
2019-01-18T03:58:12.417Z,0
2019-01-18T03:59:11.937Z,0
2019-01-18T04:00:12.546Z,0
2019-01-18T04:01:12.462Z,0
2019-01-18T04:02:12.396Z,0
2019-01-18T04:03:11.894Z,0
2019-01-18T04:04:12.400Z,0
2019-01-18T04:05:12.359Z,0
2019-01-18T04:06:12.357Z,0
2019-01-18T04:07:12.356Z,0
2019-01-18T04:08:12.162Z,0
2019-01-18T04:09:11.921Z,0
2019-01-18T04:10:12.074Z,0
2019-01-18T04:11:12.081Z,0
2019-01-18T04:12:12.296Z,0
2019-01-18T04:13:12.324Z,0
2019-01-18T04:14:12.287Z,0
2019-01-18T04:15:11.785Z,0
2019-01-18T04:16:12.261Z,0
2019-01-18T04:17:12.239Z,0
2019-01-18T04:18:11.732Z,0
2019-01-18T04:19:12.215Z,0
2019-01-18T04:20:12.205Z,0
2019-01-18T04:21:11.941Z,0
2019-01-18T04:22:11.923Z,0
2019-01-18T04:23:11.931Z,0
2019-01-18T04:24:11.905Z,0
2019-01-18T04:25:12.139Z,0
2019-01-18T04:26:11.910Z,0
2019-01-18T04:27:11.639Z,0
2019-01-18T04:28:11.860Z,0
2019-01-18T04:29:11.868Z,0
2019-01-18T04:30:11.429Z,0
2019-01-18T04:31:12.113Z,0
2019-01-18T04:32:11.854Z,0
2019-01-18T04:33:12.241Z,0
2019-01-18T04:34:11.843Z,0
2019-01-18T04:35:12.068Z,0
2019-01-18T04:36:12.065Z,0
2019-01-18T04:37:11.830Z,0
2019-01-18T04:38:12.027Z,0
2019-01-18T04:39:12.001Z,0
2019-01-18T04:40:11.763Z,0
2019-01-18T04:41:11.729Z,0
2019-01-18T04:42:11.972Z,0
2019-01-18T04:43:11.966Z,0
2019-01-18T04:44:11.682Z,0
2019-01-18T04:45:11.683Z,0
2019-01-18T04:46:11.670Z,0
2019-01-18T04:47:11.425Z,0
2019-01-18T04:48:11.644Z,0
2019-01-18T04:49:11.797Z,0
2019-01-18T04:50:12.429Z,0
2019-01-18T04:51:11.377Z,0
2019-01-18T04:52:11.732Z,0
2019-01-18T04:53:11.672Z,0
2019-01-18T04:54:11.588Z,0
2019-01-18T04:55:11.827Z,0
2019-01-18T04:56:11.555Z,0
2019-01-18T04:57:11.306Z,0
2019-01-18T04:58:11.038Z,0
2019-01-18T04:59:11.804Z,0
2019-01-18T05:00:11.524Z,0
2019-01-18T05:01:11.753Z,0
2019-01-18T05:02:11.512Z,0
2019-01-18T05:03:11.721Z,0
2019-01-18T05:04:11.249Z,0
2019-01-18T05:05:11.484Z,0
2019-01-18T05:06:11.453Z,0
2019-01-18T05:07:11.439Z,0
2019-01-18T05:08:11.674Z,0
2019-01-18T05:09:11.438Z,0
2019-01-18T05:10:11.193Z,0
2019-01-18T05:11:11.181Z,0
2019-01-18T05:12:11.403Z,0
2019-01-18T05:13:11.384Z,0
2019-01-18T05:14:11.377Z,0
2019-01-18T05:15:11.430Z,0
2019-01-18T05:16:11.598Z,0
2019-01-18T05:17:11.588Z,0
2019-01-18T05:18:11.577Z,0
2019-01-18T05:19:11.636Z,0
2019-01-18T05:20:11.320Z,0
2019-01-18T05:21:11.052Z,0
2019-01-18T05:22:11.620Z,0
2019-01-18T05:23:11.342Z,0
2019-01-18T05:24:11.519Z,0
2019-01-18T05:25:11.538Z,0
2019-01-18T05:26:11.015Z,0
2019-01-18T05:27:11.014Z,0
2019-01-18T05:28:11.000Z,0
2019-01-18T05:29:11.221Z,0
2019-01-18T05:30:11.205Z,0
2019-01-18T05:31:11.206Z,0
2019-01-18T05:32:11.181Z,0
2019-01-18T05:33:11.430Z,0
2019-01-18T05:34:10.697Z,0
2019-01-18T05:35:11.150Z,0
2019-01-18T05:36:11.119Z,0
2019-01-18T05:37:11.117Z,0
2019-01-18T05:38:10.851Z,0
2019-01-18T05:39:11.351Z,0
2019-01-18T05:40:11.321Z,0
2019-01-18T05:41:11.113Z,0
2019-01-18T05:42:11.083Z,0
2019-01-18T05:43:11.298Z,0
2019-01-18T05:44:11.293Z,0
2019-01-18T05:45:11.022Z,0
2019-01-18T05:46:11.271Z,0
2019-01-18T05:47:11.257Z,0
2019-01-18T05:48:10.998Z,0
2019-01-18T05:49:11.048Z,0
2019-01-18T05:50:10.731Z,0
2019-01-18T05:51:11.005Z,0
2019-01-18T05:52:11.270Z,0
2019-01-18T05:53:10.773Z,0
2019-01-18T05:54:10.932Z,0
2019-01-18T05:55:11.213Z,0
2019-01-18T05:56:10.982Z,0
2019-01-18T05:57:10.928Z,0
2019-01-18T05:58:10.894Z,0
2019-01-18T05:59:10.902Z,0
2019-01-18T06:00:10.618Z,0
2019-01-18T06:01:10.848Z,0
2019-01-18T06:02:11.118Z,0
2019-01-18T06:03:10.606Z,0
2019-01-18T06:04:10.838Z,0
2019-01-18T06:05:11.067Z,0
2019-01-18T06:06:11.048Z,0
2019-01-18T06:07:11.036Z,0
2019-01-18T06:08:10.784Z,0
2019-01-18T06:09:10.772Z,0
2019-01-18T06:10:10.768Z,0
2019-01-18T06:11:10.764Z,0
2019-01-18T06:12:10.505Z,0
2019-01-18T06:13:10.973Z,0
2019-01-18T06:14:10.233Z,0
2019-01-18T06:15:10.951Z,0
2019-01-18T06:16:10.703Z,0
2019-01-18T06:17:10.740Z,0
2019-01-18T06:18:10.754Z,0
2019-01-18T06:19:10.684Z,0
2019-01-18T06:20:10.421Z,0
2019-01-18T06:21:10.940Z,0
2019-01-18T06:22:10.425Z,0
2019-01-18T06:23:10.605Z,0
2019-01-18T06:24:10.630Z,0
2019-01-18T06:25:10.721Z,0
2019-01-18T06:26:10.584Z,0
2019-01-18T06:27:10.609Z,0
2019-01-18T06:28:10.593Z,0
2019-01-18T06:29:10.295Z,0
2019-01-18T06:30:10.284Z,0
2019-01-18T06:31:11.335Z,0
2019-01-18T06:32:10.866Z,0
2019-01-18T06:33:10.256Z,0
2019-01-18T06:34:10.506Z,0
2019-01-18T06:35:10.730Z,0
2019-01-18T06:36:10.506Z,0
2019-01-18T06:37:10.328Z,0
2019-01-18T06:38:10.524Z,4
2019-01-18T06:39:10.440Z,4
2019-01-18T06:40:10.424Z,4
2019-01-18T06:41:09.917Z,4
2019-01-18T06:42:10.674Z,4
2019-01-18T06:43:12.571Z,4
2019-01-18T06:44:10.418Z,0
2019-01-18T06:45:10.612Z,0
2019-01-18T06:46:09.885Z,4
2019-01-18T06:47:10.592Z,4
2019-01-18T06:48:10.358Z,4
2019-01-18T06:49:10.347Z,4
2019-01-18T06:50:10.579Z,4
2019-01-18T06:51:10.548Z,4
2019-01-18T06:52:10.279Z,4
2019-01-18T06:53:10.526Z,4
2019-01-18T06:54:10.282Z,8
2019-01-18T06:55:10.264Z,8
2019-01-18T06:56:10.506Z,8
2019-01-18T06:57:10.248Z,12
2019-01-18T06:58:10.246Z,16
2019-01-18T06:59:10.205Z,24
2019-01-18T07:00:10.226Z,40
2019-01-18T07:01:15.221Z,52
2019-01-18T07:02:10.175Z,68
2019-01-18T07:03:10.198Z,88
2019-01-18T07:04:10.421Z,104
2019-01-18T07:05:10.177Z,124
2019-01-18T07:06:09.911Z,144
2019-01-18T07:07:10.187Z,156
2019-01-18T07:08:10.173Z,176
2019-01-18T07:09:10.385Z,196
2019-01-18T07:10:10.145Z,220
2019-01-18T07:11:09.602Z,236
2019-01-18T07:12:10.082Z,256
2019-01-18T07:13:10.073Z,272
2019-01-18T07:14:10.313Z,284
2019-01-18T07:15:10.309Z,292
2019-01-18T07:16:10.035Z,292
2019-01-18T07:17:10.020Z,296
2019-01-18T07:18:10.005Z,300
2019-01-18T07:19:10.002Z,304
2019-01-18T07:20:13.356Z,312
2019-01-18T07:21:09.992Z,332
2019-01-18T07:22:10.071Z,360
2019-01-18T07:23:09.535Z,384
2019-01-18T07:24:09.926Z,420
2019-01-18T07:25:09.934Z,456
2019-01-18T07:26:09.914Z,500
2019-01-18T07:27:10.938Z,532
2019-01-18T07:28:10.128Z,572
2019-01-18T07:29:10.137Z,612
2019-01-18T07:30:09.901Z,640
2019-01-18T07:31:15.040Z,672
2019-01-18T07:32:09.842Z,692
2019-01-18T07:33:10.070Z,708
2019-01-18T07:34:09.830Z,720
2019-01-18T07:35:10.930Z,748
2019-01-18T07:36:10.070Z,788
2019-01-18T07:37:09.578Z,844
2019-01-18T07:38:09.585Z,900
2019-01-18T07:39:09.335Z,988
2019-01-18T07:40:09.535Z,1076
2019-01-18T07:41:09.259Z,1136
2019-01-18T07:42:09.739Z,1172
2019-01-18T07:43:09.477Z,1208
2019-01-18T07:44:09.701Z,1244
2019-01-18T07:45:09.702Z,1276
2019-01-18T07:46:09.955Z,1320
2019-01-18T07:47:09.909Z,1360
2019-01-18T07:48:09.458Z,1400
2019-01-18T07:49:09.432Z,1452
2019-01-18T07:50:09.652Z,1520
2019-01-18T07:51:09.912Z,1604
2019-01-18T07:52:09.185Z,1688
2019-01-18T07:53:09.638Z,1760
2019-01-18T07:54:09.598Z,1836
2019-01-18T07:55:09.578Z,1956
2019-01-18T07:56:09.581Z,1980
2019-01-18T07:57:09.566Z,2036
2019-01-18T07:58:09.400Z,2068
2019-01-18T07:59:09.591Z,2148
2019-01-18T08:00:09.783Z,2172
2019-01-18T08:01:09.521Z,2176
2019-01-18T08:02:09.307Z,2240
2019-01-18T08:03:09.301Z,2280
2019-01-18T08:04:09.291Z,2220
2019-01-18T08:05:09.791Z,2188
2019-01-18T08:06:09.230Z,2196
2019-01-18T08:07:09.467Z,2208
2019-01-18T08:08:10.354Z,2232
2019-01-18T08:09:09.494Z,2264
2019-01-18T08:10:09.664Z,2264
2019-01-18T08:11:09.647Z,2280
2019-01-18T08:12:09.404Z,2296
2019-01-18T08:13:09.637Z,2328
2019-01-18T08:14:09.376Z,2384
2019-01-18T08:15:09.126Z,2440
2019-01-18T08:16:09.131Z,2476
2019-01-18T08:17:09.350Z,2500
2019-01-18T08:18:09.090Z,2528
2019-01-18T08:19:09.690Z,2532
2019-01-18T08:20:09.314Z,2536
2019-01-18T08:21:09.567Z,2560
2019-01-18T08:22:09.548Z,2624
2019-01-18T08:23:09.283Z,2728
2019-01-18T08:24:09.521Z,2792
2019-01-18T08:25:09.255Z,2864
2019-01-18T08:26:09.023Z,2952
2019-01-18T08:27:09.258Z,2884
2019-01-18T08:28:09.008Z,2672
2019-01-18T08:29:09.484Z,2520
2019-01-18T08:30:08.989Z,2432
2019-01-18T08:31:09.459Z,2412
2019-01-18T08:32:09.199Z,2436
2019-01-18T08:33:09.233Z,2444
2019-01-18T08:34:09.168Z,2436
2019-01-18T08:35:09.014Z,2424
2019-01-18T08:36:09.428Z,2388
2019-01-18T08:37:09.116Z,2360
2019-01-18T08:38:09.369Z,2328
2019-01-18T08:39:08.621Z,2300
2019-01-18T08:40:09.088Z,2260
2019-01-18T08:41:09.073Z,2256
2019-01-18T08:42:09.103Z,2296
2019-01-18T08:43:08.827Z,2324
2019-01-18T08:44:09.308Z,2384
2019-01-18T08:45:09.286Z,2456
2019-01-18T08:46:09.343Z,2508
2019-01-18T08:47:08.878Z,2528
2019-01-18T08:48:09.269Z,2520
2019-01-18T08:49:09.261Z,2544
2019-01-18T08:50:09.255Z,2532
2019-01-18T08:51:09.269Z,2512
2019-01-18T08:52:08.964Z,2492
2019-01-18T08:53:09.264Z,2408
2019-01-18T08:54:09.000Z,2372
2019-01-18T08:55:08.945Z,2352
2019-01-18T08:56:09.206Z,2352
2019-01-18T08:57:09.230Z,2280
2019-01-18T08:58:09.212Z,2192
2019-01-18T08:59:08.989Z,2132
2019-01-18T09:00:08.920Z,2056
2019-01-18T09:01:09.147Z,1964
2019-01-18T09:02:08.889Z,1912
2019-01-18T09:03:09.114Z,1924
2019-01-18T09:04:08.854Z,1912
2019-01-18T09:05:09.098Z,1864
2019-01-18T09:06:08.848Z,1796
2019-01-18T09:07:08.583Z,1832
2019-01-18T09:08:08.585Z,1928
2019-01-18T09:09:09.051Z,2060
2019-01-18T09:10:09.044Z,2148
2019-01-18T09:11:09.020Z,2216
2019-01-18T09:12:09.002Z,2276
2019-01-18T09:13:09.038Z,2344
2019-01-18T09:14:08.743Z,2368
2019-01-18T09:15:08.985Z,2352
2019-01-18T09:16:08.750Z,2352
2019-01-18T09:17:08.956Z,2404
2019-01-18T09:18:08.731Z,2520
2019-01-18T09:19:08.712Z,2684
2019-01-18T09:20:08.832Z,2840
2019-01-18T09:21:08.942Z,2972
2019-01-18T09:22:08.726Z,3076
2019-01-18T09:23:08.960Z,3176
2019-01-18T09:24:08.674Z,3248
2019-01-18T09:25:08.906Z,3272
2019-01-18T09:26:08.630Z,3236
2019-01-18T09:27:08.419Z,3192
2019-01-18T09:28:08.869Z,3132
2019-01-18T09:29:08.632Z,3024
2019-01-18T09:30:08.840Z,2932
2019-01-18T09:31:09.283Z,2840
2019-01-18T09:32:08.909Z,2712
2019-01-18T09:33:08.559Z,2580
2019-01-18T09:34:08.569Z,2444
2019-01-18T09:35:08.832Z,2308
2019-01-18T09:36:08.323Z,2200
2019-01-18T09:37:08.800Z,2152
2019-01-18T09:38:08.282Z,2136
2019-01-18T09:39:08.275Z,2144
2019-01-18T09:40:08.281Z,2172
2019-01-18T09:41:08.527Z,2208
2019-01-18T09:42:08.053Z,2252
2019-01-18T09:43:08.716Z,2256
2019-01-18T09:44:08.722Z,2172
2019-01-18T09:45:08.198Z,2116
2019-01-18T09:46:08.679Z,2044
2019-01-18T09:47:08.191Z,1944
2019-01-18T09:48:08.167Z,1820
2019-01-18T09:49:07.929Z,1692
2019-01-18T09:50:08.481Z,1608
2019-01-18T09:51:08.631Z,1556
2019-01-18T09:52:08.423Z,1516
2019-01-18T09:53:08.391Z,1468
2019-01-18T09:54:08.609Z,1440
2019-01-18T09:55:08.333Z,1440
2019-01-18T09:56:08.112Z,1476
2019-01-18T09:57:08.071Z,1532
2019-01-18T09:58:08.096Z,1604
2019-01-18T09:59:08.339Z,1700
2019-01-18T10:00:08.068Z,1828
2019-01-18T10:01:09.822Z,1996
2019-01-18T10:02:08.072Z,2156
2019-01-18T10:03:08.059Z,2340
2019-01-18T10:04:08.058Z,2532
2019-01-18T10:05:08.252Z,2724
2019-01-18T10:06:07.755Z,2892
2019-01-18T10:07:08.467Z,3028
2019-01-18T10:08:10.133Z,3168
2019-01-18T10:09:07.716Z,3256
2019-01-18T10:10:08.195Z,3304
2019-01-18T10:11:08.188Z,3344
2019-01-18T10:12:08.424Z,3336
2019-01-18T10:13:07.943Z,3284
2019-01-18T10:14:08.449Z,3232
2019-01-18T10:15:08.151Z,3200
2019-01-18T10:16:08.141Z,3224
2019-01-18T10:17:08.404Z,3276
2019-01-18T10:18:08.381Z,3360
2019-01-18T10:19:08.405Z,3476
2019-01-18T10:20:08.438Z,3648
2019-01-18T10:21:08.112Z,3840
2019-01-18T10:22:08.115Z,4036
2019-01-18T10:23:08.311Z,4140
2019-01-18T10:24:08.058Z,4220
2019-01-18T10:25:07.812Z,4260
2019-01-18T10:26:08.062Z,4280
2019-01-18T10:27:08.037Z,4240
2019-01-18T10:28:07.761Z,4184
2019-01-18T10:29:07.742Z,4124
2019-01-18T10:30:07.743Z,4076
2019-01-18T10:31:07.735Z,4036
2019-01-18T10:32:07.732Z,4076
2019-01-18T10:33:08.254Z,4164
2019-01-18T10:34:08.225Z,4228
2019-01-18T10:35:07.680Z,4164
2019-01-18T10:36:07.953Z,4076
2019-01-18T10:37:07.928Z,4040
2019-01-18T10:38:10.621Z,4056
2019-01-18T10:39:07.667Z,4120
2019-01-18T10:40:08.168Z,4216
2019-01-18T10:41:07.646Z,4292
2019-01-18T10:42:08.133Z,4348
2019-01-18T10:43:08.133Z,4360
2019-01-18T10:44:12.693Z,4340
2019-01-18T10:45:07.589Z,4340
2019-01-18T10:46:07.838Z,4336
2019-01-18T10:47:08.110Z,4352
2019-01-18T10:48:07.824Z,4392
2019-01-18T10:49:07.806Z,4404
2019-01-18T10:50:07.558Z,4404
2019-01-18T10:51:08.109Z,4396
2019-01-18T10:52:08.020Z,4444
2019-01-18T10:53:07.770Z,4512
2019-01-18T10:54:07.497Z,4568
2019-01-18T10:55:08.215Z,4620
2019-01-18T10:56:07.750Z,4668
2019-01-18T10:57:07.223Z,4692
2019-01-18T10:58:07.523Z,4684
2019-01-18T10:59:07.711Z,4684
2019-01-18T11:00:07.958Z,4700
2019-01-18T11:01:07.688Z,4680
2019-01-18T11:02:14.226Z,4624
2019-01-18T11:03:09.035Z,4608
2019-01-18T11:04:07.653Z,4596
2019-01-18T11:05:07.672Z,4592
2019-01-18T11:06:07.695Z,4624
2019-01-18T11:07:07.405Z,4632
2019-01-18T11:08:07.654Z,4660
2019-01-18T11:09:08.143Z,4704
2019-01-18T11:10:07.615Z,4700
2019-01-18T11:11:07.353Z,4724
2019-01-18T11:12:07.841Z,4740
2019-01-18T11:13:07.075Z,4768
2019-01-18T11:14:07.065Z,4824
2019-01-18T11:15:07.563Z,4880
2019-01-18T11:16:07.320Z,4880
2019-01-18T11:17:07.835Z,4852
2019-01-18T11:18:07.305Z,4804
2019-01-18T11:19:07.286Z,4784
2019-01-18T11:20:07.787Z,4752
2019-01-18T11:21:07.258Z,4732
2019-01-18T11:22:07.066Z,4700
2019-01-18T11:23:07.748Z,4656
2019-01-18T11:24:06.968Z,4620
2019-01-18T11:25:07.219Z,4620
2019-01-18T11:26:07.215Z,4580
2019-01-18T11:27:07.464Z,4552
2019-01-18T11:28:07.709Z,4532
2019-01-18T11:29:07.178Z,4568
2019-01-18T11:30:07.540Z,4588
2019-01-18T11:31:07.671Z,4592
2019-01-18T11:32:13.544Z,4584
2019-01-18T11:33:07.416Z,4532
2019-01-18T11:34:07.386Z,4488
2019-01-18T11:35:07.381Z,4468
2019-01-18T11:36:07.371Z,4440
2019-01-18T11:37:07.616Z,4384
2019-01-18T11:38:07.109Z,4260
2019-01-18T11:39:09.250Z,4160
2019-01-18T11:40:07.082Z,4088
2019-01-18T11:41:06.837Z,4036
2019-01-18T11:42:10.122Z,4032
2019-01-18T11:43:07.587Z,4028
2019-01-18T11:44:07.317Z,4028
2019-01-18T11:45:07.543Z,4044
2019-01-18T11:46:07.318Z,4004
2019-01-18T11:47:07.289Z,3924
2019-01-18T11:48:07.267Z,3832
2019-01-18T11:49:07.027Z,3740
2019-01-18T11:50:07.514Z,3676
2019-01-18T11:51:07.245Z,3632
2019-01-18T11:52:07.242Z,3628
2019-01-18T11:53:07.238Z,3664
2019-01-18T11:54:07.485Z,3644
2019-01-18T11:55:07.523Z,3628
2019-01-18T11:56:06.983Z,3640
2019-01-18T11:57:07.212Z,3688
2019-01-18T11:58:06.972Z,3716
2019-01-18T11:59:07.193Z,3764
2019-01-18T12:00:07.424Z,3828
2019-01-18T12:01:07.440Z,3884
2019-01-18T12:02:07.400Z,3988
2019-01-18T12:03:07.171Z,4160
2019-01-18T12:04:06.907Z,4400
2019-01-18T12:05:06.895Z,4688
2019-01-18T12:06:07.116Z,5012
2019-01-18T12:07:07.117Z,5256
2019-01-18T12:08:07.343Z,5412
2019-01-18T12:09:07.098Z,5520
2019-01-18T12:10:07.176Z,5536
2019-01-18T12:11:06.841Z,5592
2019-01-18T12:12:07.336Z,5604
2019-01-18T12:13:07.080Z,5608
2019-01-18T12:14:07.318Z,5596
2019-01-18T12:15:07.461Z,5524
2019-01-18T12:16:07.054Z,5488
2019-01-18T12:17:07.056Z,5416
2019-01-18T12:18:08.115Z,5336
2019-01-18T12:19:07.279Z,5308
2019-01-18T12:20:07.054Z,5268
2019-01-18T12:21:07.079Z,5196
2019-01-18T12:22:06.991Z,5224
2019-01-18T12:23:06.988Z,5188
2019-01-18T12:24:06.790Z,5220
2019-01-18T12:25:06.823Z,5328
2019-01-18T12:26:06.963Z,5440
2019-01-18T12:27:07.180Z,5692
2019-01-18T12:28:06.710Z,5960
2019-01-18T12:29:06.977Z,5976
2019-01-18T12:30:06.710Z,5880
2019-01-18T12:31:06.933Z,5700
2019-01-18T12:32:06.663Z,5536
2019-01-18T12:33:06.655Z,5560
2019-01-18T12:34:06.914Z,5700
2019-01-18T12:35:06.641Z,5740
2019-01-18T12:36:06.626Z,5640
2019-01-18T12:37:07.099Z,5564
2019-01-18T12:38:06.622Z,5468
2019-01-18T12:39:07.094Z,5368
2019-01-18T12:40:06.870Z,5288
2019-01-18T12:41:06.579Z,5292
2019-01-18T12:42:07.076Z,5292
2019-01-18T12:43:07.047Z,5372
2019-01-18T12:44:06.812Z,5484
2019-01-18T12:45:08.202Z,5416
2019-01-18T12:46:06.787Z,5332
2019-01-18T12:47:06.792Z,5312
2019-01-18T12:48:07.980Z,5324
2019-01-18T12:49:06.758Z,5404
2019-01-18T12:50:06.749Z,5360
2019-01-18T12:51:08.243Z,5280
2019-01-18T12:52:06.751Z,5300
2019-01-18T12:53:06.739Z,5324
2019-01-18T12:54:06.978Z,5496
2019-01-18T12:55:06.726Z,5668
2019-01-18T12:56:06.442Z,5984
2019-01-18T12:57:06.695Z,6212
2019-01-18T12:58:06.499Z,6360
2019-01-18T12:59:06.921Z,6520
2019-01-18T13:00:06.446Z,6720
2019-01-18T13:01:06.901Z,6736
2019-01-18T13:02:06.422Z,6724
2019-01-18T13:03:08.029Z,6640
2019-01-18T13:04:10.603Z,6412
2019-01-18T13:05:06.380Z,6276
2019-01-18T13:06:06.878Z,6312
2019-01-18T13:07:06.852Z,6352
2019-01-18T13:08:06.608Z,6428
2019-01-18T13:09:06.359Z,6632
2019-01-18T13:10:11.797Z,6840
2019-01-18T13:11:06.828Z,7012
2019-01-18T13:12:06.579Z,7260
2019-01-18T13:13:06.543Z,7372
2019-01-18T13:14:07.457Z,7332
2019-01-18T13:15:06.536Z,7256
2019-01-18T13:16:06.529Z,7148
2019-01-18T13:17:06.307Z,6932
2019-01-18T13:18:06.769Z,6620
2019-01-18T13:19:06.410Z,6252
2019-01-18T13:20:06.498Z,5848
2019-01-18T13:21:06.741Z,5492
2019-01-18T13:22:06.242Z,5236
2019-01-18T13:23:06.231Z,5056
2019-01-18T13:24:06.492Z,4880
2019-01-18T13:25:06.689Z,4684
2019-01-18T13:26:06.190Z,4504
2019-01-18T13:27:06.696Z,4340
2019-01-18T13:28:06.655Z,4124
2019-01-18T13:29:06.429Z,3900
2019-01-18T13:30:06.406Z,3672
2019-01-18T13:31:06.403Z,3492
2019-01-18T13:32:06.419Z,3356
2019-01-18T13:33:06.214Z,3200
2019-01-18T13:34:10.238Z,3080
2019-01-18T13:35:06.418Z,2940
2019-01-18T13:36:06.112Z,2824
2019-01-18T13:37:06.127Z,2700
2019-01-18T13:38:06.380Z,2596
2019-01-18T13:39:06.587Z,2500
2019-01-18T13:40:10.942Z,2424
2019-01-18T13:41:06.084Z,2360
2019-01-18T13:42:07.170Z,2312
2019-01-18T13:43:06.065Z,2284
2019-01-18T13:44:06.543Z,2268
2019-01-18T13:45:06.298Z,2244
2019-01-18T13:46:06.292Z,2244
2019-01-18T13:47:06.031Z,2172
2019-01-18T13:48:06.069Z,2112
2019-01-18T13:49:06.266Z,2108
2019-01-18T13:50:06.498Z,2108
2019-01-18T13:51:05.969Z,2112
2019-01-18T13:52:06.258Z,2120
2019-01-18T13:53:06.209Z,2144
2019-01-18T13:54:06.461Z,2144
2019-01-18T13:55:06.183Z,2136
2019-01-18T13:56:05.931Z,2132
2019-01-18T13:57:06.431Z,2132
2019-01-18T13:58:06.160Z,2152
2019-01-18T13:59:06.156Z,2164
2019-01-18T14:00:06.409Z,2164
2019-01-18T14:01:06.127Z,2168